Corpus Christi Naval Air Station/Truax Field
KNGP : now visible

Airfield :











YOU CAN JOIN US ON...

 
LOGIN :

Register | Disclaimer

   EN    FR    IT 

 









Legend :    VFR   Marginal VFR   IFR   Intensive IFR   Very Intensive IFR
Visi :
Ceiling :
>= 8 km
>= 3000ft
5 to 8 km
1000 to 3000 ft
1500m to 5 km
500 to 1000 ft
800 to 1500m
200 to 500 ft
< 800m
< 200 ft
Symbols :   Thunderstorms  Fog  Heavy snow  Heavy precipitations  Wind > 20 kt






- Airport Elevation : 18 ft


KNGP - Corpus Christi Naval Air Station/Truax Field

CURRENT METAR :
  • 061356Z 00000KT 7SM FEW008 OVC016 21/21 A3011 RMK AO2 SLP197 T02060206 $

EXPIRED METARs :
  • 061256Z 00000KT 8SM FEW006 OVC016 21/21 A3009 RMK AO2 SLP188 T02060206 $

TAF AMD TAF KNGP
Valid from the 06 at 10:00 until the 07 at 07:00 UTC


0610/0707 21005KT 8000 BR SCT004 OVC012 QNH3000INS
TEMPO 0610/0613 VRB03KT 1200 BR OVC002
FM061300 32006KT 4000 BR OVC004 QNH3007INS
TEMPO 0613/0616 0800 -DZ FG VV002
FM061600 34011G16KT 9000 BR SCT006 BKN010 BKN025 BKN250 QNH3012INS
TEMPO 0616/0618 FEW006 SCT010 BKN025 BKN250
FM061800 36011G16KT 9999 FEW012 SCT025 SCT250 QNH3008INS
FM062300 3613G19KT 9999 FEW250 QNH3008INS AUTOMATED SENSOR METWATCH 0610 TIL 0612 T18/0613Z T27/0620Z AMD 1015 FN20044



MET'MAP, your aeronautical weather chart ! - Copyright ORBIFLY December 2007 - Disclaimer

ORBIFLY MET'MAP TEAM :

Programming & Development : Alexandra Zaïnal
Concept & original design : Baudouin d'Aumeries
Assistance for programming : Marc-Olivier Méhu
Technical & hardware support : Manuel Goepfert

Contact : metmap@orbifly.com




SOURCES & CREDITS :

   NOAA       Earth
Advisory